sensor_id;sensor_type;location;lat;lon;timestamp;temperature;humidity
7762;DHT22;3925;48.636;9.516;2022-07-09T00:01:02;14.20;99.90
7762;DHT22;3925;48.636;9.516;2022-07-09T00:03:29;14.20;99.90
7762;DHT22;3925;48.636;9.516;2022-07-09T00:05:56;14.10;99.90
7762;DHT22;3925;48.636;9.516;2022-07-09T00:08:23;14.10;99.90
7762;DHT22;3925;48.636;9.516;2022-07-09T00:10:50;14.20;99.90
7762;DHT22;3925;48.636;9.516;2022-07-09T00:13:17;14.20;99.90
7762;DHT22;3925;48.636;9.516;2022-07-09T00:15:44;14.20;99.90
7762;DHT22;3925;48.636;9.516;2022-07-09T00:18:12;14.10;99.90
7762;DHT22;3925;48.636;9.516;2022-07-09T00:20:39;14.10;99.90
7762;DHT22;3925;48.636;9.516;2022-07-09T00:23:06;14.10;99.90
7762;DHT22;3925;48.636;9.516;2022-07-09T00:25:33;14.20;99.90
7762;DHT22;3925;48.636;9.516;2022-07-09T00:28:00;14.20;99.90
7762;DHT22;3925;48.636;9.516;2022-07-09T00:30:27;14.20;99.90
7762;DHT22;3925;48.636;9.516;2022-07-09T00:32:54;14.10;99.90
7762;DHT22;3925;48.636;9.516;2022-07-09T00:35:22;14.10;99.90
7762;DHT22;3925;48.636;9.516;2022-07-09T00:37:49;14.20;99.90
7762;DHT22;3925;48.636;9.516;2022-07-09T00:40:16;14.20;99.90
7762;DHT22;3925;48.636;9.516;2022-07-09T00:42:43;14.20;99.90
7762;DHT22;3925;48.636;9.516;2022-07-09T00:45:10;14.10;99.90
7762;DHT22;3925;48.636;9.516;2022-07-09T00:47:37;14.00;99.90
7762;DHT22;3925;48.636;9.516;2022-07-09T00:50:05;13.90;99.90
7762;DHT22;3925;48.636;9.516;2022-07-09T00:52:35;14.00;99.90
7762;DHT22;3925;48.636;9.516;2022-07-09T00:55:05;14.00;99.90
7762;DHT22;3925;48.636;9.516;2022-07-09T00:57:33;13.90;99.90
7762;DHT22;3925;48.636;9.516;2022-07-09T01:00:00;13.80;99.90
7762;DHT22;3925;48.636;9.516;2022-07-09T01:02:27;13.80;99.90
7762;DHT22;3925;48.636;9.516;2022-07-09T01:04:54;13.70;99.90
7762;DHT22;3925;48.636;9.516;2022-07-09T01:07:21;13.70;99.90
7762;DHT22;3925;48.636;9.516;2022-07-09T01:09:49;13.80;99.90
7762;DHT22;3925;48.636;9.516;2022-07-09T01:12:16;13.90;99.90
7762;DHT22;3925;48.636;9.516;2022-07-09T01:14:43;14.00;99.90
7762;DHT22;3925;48.636;9.516;2022-07-09T01:17:10;13.80;99.90
7762;DHT22;3925;48.636;9.516;2022-07-09T01:19:37;13.90;99.90
7762;DHT22;3925;48.636;9.516;2022-07-09T01:22:05;13.90;99.90
7762;DHT22;3925;48.636;9.516;2022-07-09T01:24:33;13.80;99.90
7762;DHT22;3925;48.636;9.516;2022-07-09T01:27:02;13.90;99.90
7762;DHT22;3925;48.636;9.516;2022-07-09T01:29:29;13.90;99.90
7762;DHT22;3925;48.636;9.516;2022-07-09T01:31:56;14.00;99.90
7762;DHT22;3925;48.636;9.516;2022-07-09T01:34:23;14.00;99.90
7762;DHT22;3925;48.636;9.516;2022-07-09T01:36:50;14.00;99.90
7762;DHT22;3925;48.636;9.516;2022-07-09T01:39:18;13.80;99.90
7762;DHT22;3925;48.636;9.516;2022-07-09T01:41:45;13.70;99.90
7762;DHT22;3925;48.636;9.516;2022-07-09T01:44:12;13.70;99.90
7762;DHT22;3925;48.636;9.516;2022-07-09T01:46:39;13.60;99.90
7762;DHT22;3925;48.636;9.516;2022-07-09T01:49:06;13.50;99.90
7762;DHT22;3925;48.636;9.516;2022-07-09T01:51:33;13.60;99.90
7762;DHT22;3925;48.636;9.516;2022-07-09T01:54:01;13.70;99.90
7762;DHT22;3925;48.636;9.516;2022-07-09T01:56:29;13.70;99.90
7762;DHT22;3925;48.636;9.516;2022-07-09T01:58:56;13.70;99.90
7762;DHT22;3925;48.636;9.516;2022-07-09T02:01:23;13.80;99.90
7762;DHT22;3925;48.636;9.516;2022-07-09T02:03:50;13.70;99.90
7762;DHT22;3925;48.636;9.516;2022-07-09T02:06:18;13.60;99.90
7762;DHT22;3925;48.636;9.516;2022-07-09T02:08:45;13.30;99.90
7762;DHT22;3925;48.636;9.516;2022-07-09T02:11:12;13.20;99.90
7762;DHT22;3925;48.636;9.516;2022-07-09T02:13:40;13.10;99.90
7762;DHT22;3925;48.636;9.516;2022-07-09T02:16:07;13.00;99.90
7762;DHT22;3925;48.636;9.516;2022-07-09T02:18:34;13.30;99.90
7762;DHT22;3925;48.636;9.516;2022-07-09T02:21:02;13.40;99.90
7762;DHT22;3925;48.636;9.516;2022-07-09T02:23:30;13.40;99.90
7762;DHT22;3925;48.636;9.516;2022-07-09T02:25:57;13.30;99.90
7762;DHT22;3925;48.636;9.516;2022-07-09T02:28:24;13.30;99.90
7762;DHT22;3925;48.636;9.516;2022-07-09T02:30:53;13.20;99.90
7762;DHT22;3925;48.636;9.516;2022-07-09T02:33:20;13.20;99.90
7762;DHT22;3925;48.636;9.516;2022-07-09T02:35:47;13.30;99.90
7762;DHT22;3925;48.636;9.516;2022-07-09T02:38:14;13.20;99.90
7762;DHT22;3925;48.636;9.516;2022-07-09T02:40:42;13.20;99.90
7762;DHT22;3925;48.636;9.516;2022-07-09T02:43:08;13.20;99.90
7762;DHT22;3925;48.636;9.516;2022-07-09T02:45:36;13.10;99.90
7762;DHT22;3925;48.636;9.516;2022-07-09T02:48:05;13.00;99.90
7762;DHT22;3925;48.636;9.516;2022-07-09T02:50:32;13.00;99.90
7762;DHT22;3925;48.636;9.516;2022-07-09T02:52:59;13.00;99.90
7762;DHT22;3925;48.636;9.516;2022-07-09T02:55:26;12.90;99.90
7762;DHT22;3925;48.636;9.516;2022-07-09T02:57:52;12.90;99.90
7762;DHT22;3925;48.636;9.516;2022-07-09T03:00:19;12.80;99.90
7762;DHT22;3925;48.636;9.516;2022-07-09T03:02:46;12.80;99.90
7762;DHT22;3925;48.636;9.516;2022-07-09T03:05:15;12.80;99.90
7762;DHT22;3925;48.636;9.516;2022-07-09T03:07:42;12.90;99.90
7762;DHT22;3925;48.636;9.516;2022-07-09T03:10:09;12.80;99.90
7762;DHT22;3925;48.636;9.516;2022-07-09T03:12:36;12.80;99.90
7762;DHT22;3925;48.636;9.516;2022-07-09T03:15:04;12.70;99.90
7762;DHT22;3925;48.636;9.516;2022-07-09T03:17:31;12.70;99.90
7762;DHT22;3925;48.636;9.516;2022-07-09T03:19:58;12.60;99.90
7762;DHT22;3925;48.636;9.516;2022-07-09T03:22:27;12.70;99.90
7762;DHT22;3925;48.636;9.516;2022-07-09T03:24:54;12.70;99.90
7762;DHT22;3925;48.636;9.516;2022-07-09T03:27:21;12.90;99.90
7762;DHT22;3925;48.636;9.516;2022-07-09T03:29:48;12.90;99.90
7762;DHT22;3925;48.636;9.516;2022-07-09T03:32:15;12.90;99.90
7762;DHT22;3925;48.636;9.516;2022-07-09T03:34:42;12.80;99.90
7762;DHT22;3925;48.636;9.516;2022-07-09T03:37:09;12.70;99.90
7762;DHT22;3925;48.636;9.516;2022-07-09T03:39:37;12.60;99.90
7762;DHT22;3925;48.636;9.516;2022-07-09T03:42:05;12.60;99.90
7762;DHT22;3925;48.636;9.516;2022-07-09T03:44:32;12.60;99.90
7762;DHT22;3925;48.636;9.516;2022-07-09T03:47:01;12.70;99.90
7762;DHT22;3925;48.636;9.516;2022-07-09T03:49:28;12.80;99.90
7762;DHT22;3925;48.636;9.516;2022-07-09T03:51:55;12.90;99.90
7762;DHT22;3925;48.636;9.516;2022-07-09T03:54:22;13.00;99.90
7762;DHT22;3925;48.636;9.516;2022-07-09T03:56:51;13.00;99.90
7762;DHT22;3925;48.636;9.516;2022-07-09T03:59:18;13.00;99.90
7762;DHT22;3925;48.636;9.516;2022-07-09T04:01:45;13.00;99.90
7762;DHT22;3925;48.636;9.516;2022-07-09T04:04:12;13.10;99.90
7762;DHT22;3925;48.636;9.516;2022-07-09T04:06:39;13.00;99.90
7762;DHT22;3925;48.636;9.516;2022-07-09T04:09:06;13.00;99.90
7762;DHT22;3925;48.636;9.516;2022-07-09T04:11:34;13.00;99.90
7762;DHT22;3925;48.636;9.516;2022-07-09T04:14:13;13.10;99.90
7762;DHT22;3925;48.636;9.516;2022-07-09T04:16:40;13.10;99.90
7762;DHT22;3925;48.636;9.516;2022-07-09T04:19:08;13.10;99.90
7762;DHT22;3925;48.636;9.516;2022-07-09T04:21:35;13.20;99.90
7762;DHT22;3925;48.636;9.516;2022-07-09T04:24:02;13.20;99.90
7762;DHT22;3925;48.636;9.516;2022-07-09T04:26:29;13.20;99.90
7762;DHT22;3925;48.636;9.516;2022-07-09T04:28:56;13.30;99.90
7762;DHT22;3925;48.636;9.516;2022-07-09T04:31:25;13.40;99.90
7762;DHT22;3925;48.636;9.516;2022-07-09T04:33:52;13.50;99.90
7762;DHT22;3925;48.636;9.516;2022-07-09T04:36:19;13.50;99.90
7762;DHT22;3925;48.636;9.516;2022-07-09T04:38:46;13.70;99.90
7762;DHT22;3925;48.636;9.516;2022-07-09T04:41:14;13.80;99.90
7762;DHT22;3925;48.636;9.516;2022-07-09T04:43:41;13.90;99.90
7762;DHT22;3925;48.636;9.516;2022-07-09T04:46:08;14.00;99.90
7762;DHT22;3925;48.636;9.516;2022-07-09T04:48:37;14.10;99.90
7762;DHT22;3925;48.636;9.516;2022-07-09T04:51:04;14.10;99.90
7762;DHT22;3925;48.636;9.516;2022-07-09T04:53:31;14.20;99.90
7762;DHT22;3925;48.636;9.516;2022-07-09T04:55:58;14.30;99.90
7762;DHT22;3925;48.636;9.516;2022-07-09T04:58:25;14.30;99.90
7762;DHT22;3925;48.636;9.516;2022-07-09T05:00:52;14.30;99.90
7762;DHT22;3925;48.636;9.516;2022-07-09T05:03:19;14.30;99.90
7762;DHT22;3925;48.636;9.516;2022-07-09T05:05:47;14.30;99.90
7762;DHT22;3925;48.636;9.516;2022-07-09T05:08:14;14.40;99.90
7762;DHT22;3925;48.636;9.516;2022-07-09T05:10:41;14.50;99.90
7762;DHT22;3925;48.636;9.516;2022-07-09T05:13:08;14.80;99.90
7762;DHT22;3925;48.636;9.516;2022-07-09T05:15:35;15.40;99.90
7762;DHT22;3925;48.636;9.516;2022-07-09T05:18:02;15.90;99.90
7762;DHT22;3925;48.636;9.516;2022-07-09T05:20:29;16.40;99.90
7762;DHT22;3925;48.636;9.516;2022-07-09T05:22:57;17.10;99.90
7762;DHT22;3925;48.636;9.516;2022-07-09T05:25:24;17.60;99.90
7762;DHT22;3925;48.636;9.516;2022-07-09T05:27:51;18.20;99.90
7762;DHT22;3925;48.636;9.516;2022-07-09T05:30:18;19.00;99.90
7762;DHT22;3925;48.636;9.516;2022-07-09T05:32:45;19.90;99.90
7762;DHT22;3925;48.636;9.516;2022-07-09T05:35:13;20.80;99.50
7762;DHT22;3925;48.636;9.516;2022-07-09T05:37:43;22.30;98.20
7762;DHT22;3925;48.636;9.516;2022-07-09T05:40:13;23.70;96.10
7762;DHT22;3925;48.636;9.516;2022-07-09T05:42:40;25.00;92.70
7762;DHT22;3925;48.636;9.516;2022-07-09T05:45:08;26.30;89.10
7762;DHT22;3925;48.636;9.516;2022-07-09T05:47:35;27.50;80.70
7762;DHT22;3925;48.636;9.516;2022-07-09T05:50:02;28.80;72.20
7762;DHT22;3925;48.636;9.516;2022-07-09T05:52:29;29.30;66.40
7762;DHT22;3925;48.636;9.516;2022-07-09T05:54:56;29.90;61.00
7762;DHT22;3925;48.636;9.516;2022-07-09T05:57:25;29.70;59.30
7762;DHT22;3925;48.636;9.516;2022-07-09T05:59:52;29.60;58.40
7762;DHT22;3925;48.636;9.516;2022-07-09T06:02:19;29.60;58.10
7762;DHT22;3925;48.636;9.516;2022-07-09T06:04:46;29.90;56.40
7762;DHT22;3925;48.636;9.516;2022-07-09T06:07:13;30.10;56.40
7762;DHT22;3925;48.636;9.516;2022-07-09T06:09:40;30.70;54.20
7762;DHT22;3925;48.636;9.516;2022-07-09T06:12:08;31.50;53.60
7762;DHT22;3925;48.636;9.516;2022-07-09T06:14:39;30.90;52.00
7762;DHT22;3925;48.636;9.516;2022-07-09T06:17:06;31.60;52.30
7762;DHT22;3925;48.636;9.516;2022-07-09T06:19:34;32.40;49.50
7762;DHT22;3925;48.636;9.516;2022-07-09T06:22:01;33.30;47.80
7762;DHT22;3925;48.636;9.516;2022-07-09T06:24:28;33.90;44.80
7762;DHT22;3925;48.636;9.516;2022-07-09T06:26:56;34.60;43.30
7762;DHT22;3925;48.636;9.516;2022-07-09T06:29:23;34.90;42.30
7762;DHT22;3925;48.636;9.516;2022-07-09T06:31:51;34.90;41.40
7762;DHT22;3925;48.636;9.516;2022-07-09T06:34:23;35.20;41.30
7762;DHT22;3925;48.636;9.516;2022-07-09T06:36:50;34.70;42.20
7762;DHT22;3925;48.636;9.516;2022-07-09T06:39:17;34.40;42.50
7762;DHT22;3925;48.636;9.516;2022-07-09T06:42:05;34.60;41.90
7762;DHT22;3925;48.636;9.516;2022-07-09T06:44:32;35.60;41.60
7762;DHT22;3925;48.636;9.516;2022-07-09T06:47:00;36.20;40.10
7762;DHT22;3925;48.636;9.516;2022-07-09T06:49:27;36.50;38.50
7762;DHT22;3925;48.636;9.516;2022-07-09T06:51:55;36.10;39.40
7762;DHT22;3925;48.636;9.516;2022-07-09T06:54:22;36.00;39.30
7762;DHT22;3925;48.636;9.516;2022-07-09T06:56:49;35.90;39.50
7762;DHT22;3925;48.636;9.516;2022-07-09T06:59:17;36.30;37.50
7762;DHT22;3925;48.636;9.516;2022-07-09T07:01:44;36.40;37.60
7762;DHT22;3925;48.636;9.516;2022-07-09T07:04:13;36.50;38.00
7762;DHT22;3925;48.636;9.516;2022-07-09T07:06:40;37.60;35.80
7762;DHT22;3925;48.636;9.516;2022-07-09T07:09:07;37.90;35.40
7762;DHT22;3925;48.636;9.516;2022-07-09T07:11:35;38.90;34.00
7762;DHT22;3925;48.636;9.516;2022-07-09T07:14:02;39.30;32.10
7762;DHT22;3925;48.636;9.516;2022-07-09T07:16:29;38.90;31.20
7762;DHT22;3925;48.636;9.516;2022-07-09T07:18:55;38.30;33.20
7762;DHT22;3925;48.636;9.516;2022-07-09T07:21:24;37.30;34.10
7762;DHT22;3925;48.636;9.516;2022-07-09T07:23:51;36.70;35.50
7762;DHT22;3925;48.636;9.516;2022-07-09T07:26:18;35.80;36.70
7762;DHT22;3925;48.636;9.516;2022-07-09T07:28:45;35.00;37.50
7762;DHT22;3925;48.636;9.516;2022-07-09T07:31:12;34.40;37.70
7762;DHT22;3925;48.636;9.516;2022-07-09T07:33:39;34.00;39.30
7762;DHT22;3925;48.636;9.516;2022-07-09T07:36:06;34.70;39.70
7762;DHT22;3925;48.636;9.516;2022-07-09T07:38:35;35.70;38.30
7762;DHT22;3925;48.636;9.516;2022-07-09T07:41:02;37.10;36.40
7762;DHT22;3925;48.636;9.516;2022-07-09T07:43:29;38.10;33.70
7762;DHT22;3925;48.636;9.516;2022-07-09T07:45:56;38.90;33.00
7762;DHT22;3925;48.636;9.516;2022-07-09T07:48:23;39.80;31.70
7762;DHT22;3925;48.636;9.516;2022-07-09T07:53:20;40.20;30.40
7762;DHT22;3925;48.636;9.516;2022-07-09T07:55:49;41.20;30.60
7762;DHT22;3925;48.636;9.516;2022-07-09T07:58:16;41.80;29.30
7762;DHT22;3925;48.636;9.516;2022-07-09T08:00:43;41.80;29.10
7762;DHT22;3925;48.636;9.516;2022-07-09T08:03:10;41.70;28.20
7762;DHT22;3925;48.636;9.516;2022-07-09T08:05:37;42.10;28.30
7762;DHT22;3925;48.636;9.516;2022-07-09T08:08:04;42.40;27.60
7762;DHT22;3925;48.636;9.516;2022-07-09T08:10:31;42.00;29.30
7762;DHT22;3925;48.636;9.516;2022-07-09T08:12:59;41.40;27.90
7762;DHT22;3925;48.636;9.516;2022-07-09T08:15:26;40.80;29.30
7762;DHT22;3925;48.636;9.516;2022-07-09T08:17:53;39.40;29.60
7762;DHT22;3925;48.636;9.516;2022-07-09T08:20:20;38.00;31.80
7762;DHT22;3925;48.636;9.516;2022-07-09T08:22:48;37.20;34.10
7762;DHT22;3925;48.636;9.516;2022-07-09T08:25:15;36.30;35.00
7762;DHT22;3925;48.636;9.516;2022-07-09T08:27:42;36.50;35.50
7762;DHT22;3925;48.636;9.516;2022-07-09T08:30:11;37.60;34.30
7762;DHT22;3925;48.636;9.516;2022-07-09T08:32:38;38.10;32.70
7762;DHT22;3925;48.636;9.516;2022-07-09T08:35:06;38.10;32.40
7762;DHT22;3925;48.636;9.516;2022-07-09T08:37:34;38.50;32.10
7762;DHT22;3925;48.636;9.516;2022-07-09T08:40:01;38.80;29.10
7762;DHT22;3925;48.636;9.516;2022-07-09T08:42:28;39.70;29.40
7762;DHT22;3925;48.636;9.516;2022-07-09T08:44:56;39.60;28.40
7762;DHT22;3925;48.636;9.516;2022-07-09T08:47:25;40.90;28.20
7762;DHT22;3925;48.636;9.516;2022-07-09T08:49:56;40.30;28.40
7762;DHT22;3925;48.636;9.516;2022-07-09T08:52:24;40.40;28.70
7762;DHT22;3925;48.636;9.516;2022-07-09T08:54:53;40.90;28.80
7762;DHT22;3925;48.636;9.516;2022-07-09T08:57:20;41.00;29.50
7762;DHT22;3925;48.636;9.516;2022-07-09T08:59:48;41.00;27.60
7762;DHT22;3925;48.636;9.516;2022-07-09T09:02:15;41.80;28.50
7762;DHT22;3925;48.636;9.516;2022-07-09T09:04:47;41.90;27.30
7762;DHT22;3925;48.636;9.516;2022-07-09T09:07:15;42.50;28.30
7762;DHT22;3925;48.636;9.516;2022-07-09T09:09:43;41.70;27.70
7762;DHT22;3925;48.636;9.516;2022-07-09T09:12:11;40.90;28.30
7762;DHT22;3925;48.636;9.516;2022-07-09T09:14:39;42.40;27.60
7762;DHT22;3925;48.636;9.516;2022-07-09T09:17:07;42.50;28.10
7762;DHT22;3925;48.636;9.516;2022-07-09T09:19:35;42.90;26.70
7762;DHT22;3925;48.636;9.516;2022-07-09T09:22:05;41.70;26.10
7762;DHT22;3925;48.636;9.516;2022-07-09T09:24:32;42.40;26.70
7762;DHT22;3925;48.636;9.516;2022-07-09T09:26:59;41.70;26.50
7762;DHT22;3925;48.636;9.516;2022-07-09T09:29:27;42.40;27.30
7762;DHT22;3925;48.636;9.516;2022-07-09T09:31:54;42.40;26.00
7762;DHT22;3925;48.636;9.516;2022-07-09T09:34:22;41.20;27.70
7762;DHT22;3925;48.636;9.516;2022-07-09T09:36:50;42.40;27.20
7762;DHT22;3925;48.636;9.516;2022-07-09T09:39:19;43.40;26.40
7762;DHT22;3925;48.636;9.516;2022-07-09T09:41:48;43.60;26.10
7762;DHT22;3925;48.636;9.516;2022-07-09T09:44:18;43.60;26.10
7762;DHT22;3925;48.636;9.516;2022-07-09T09:46:46;43.40;25.40
7762;DHT22;3925;48.636;9.516;2022-07-09T09:49:14;43.20;26.20
7762;DHT22;3925;48.636;9.516;2022-07-09T09:51:49;42.80;26.70
7762;DHT22;3925;48.636;9.516;2022-07-09T09:54:19;43.60;26.60
7762;DHT22;3925;48.636;9.516;2022-07-09T09:56:47;43.90;26.10
7762;DHT22;3925;48.636;9.516;2022-07-09T09:59:14;44.00;24.40
7762;DHT22;3925;48.636;9.516;2022-07-09T10:01:43;42.90;26.10
7762;DHT22;3925;48.636;9.516;2022-07-09T10:04:11;43.20;25.30
7762;DHT22;3925;48.636;9.516;2022-07-09T10:06:39;42.90;26.70
7762;DHT22;3925;48.636;9.516;2022-07-09T10:09:08;43.40;25.50
7762;DHT22;3925;48.636;9.516;2022-07-09T10:11:40;42.90;26.20
7762;DHT22;3925;48.636;9.516;2022-07-09T10:14:08;42.00;25.80
7762;DHT22;3925;48.636;9.516;2022-07-09T10:16:41;41.70;27.30
7762;DHT22;3925;48.636;9.516;2022-07-09T10:19:08;41.70;27.30
7762;DHT22;3925;48.636;9.516;2022-07-09T10:21:36;42.30;27.20
7762;DHT22;3925;48.636;9.516;2022-07-09T10:24:05;41.60;27.10
7762;DHT22;3925;48.636;9.516;2022-07-09T10:26:44;40.80;25.60
7762;DHT22;3925;48.636;9.516;2022-07-09T10:29:21;41.20;28.30
7762;DHT22;3925;48.636;9.516;2022-07-09T10:31:48;42.00;27.10
7762;DHT22;3925;48.636;9.516;2022-07-09T10:37:30;41.80;26.60
7762;DHT22;3925;48.636;9.516;2022-07-09T10:40:07;40.40;28.30
7762;DHT22;3925;48.636;9.516;2022-07-09T10:42:36;39.40;30.20
7762;DHT22;3925;48.636;9.516;2022-07-09T10:45:16;38.60;30.70
7762;DHT22;3925;48.636;9.516;2022-07-09T10:47:52;35.40;32.40
7762;DHT22;3925;48.636;9.516;2022-07-09T10:50:19;33.90;35.90
7762;DHT22;3925;48.636;9.516;2022-07-09T10:52:46;33.40;35.50
7762;DHT22;3925;48.636;9.516;2022-07-09T10:55:16;33.10;37.60
7762;DHT22;3925;48.636;9.516;2022-07-09T10:57:44;32.70;38.30
7762;DHT22;3925;48.636;9.516;2022-07-09T11:00:14;32.30;37.70
7762;DHT22;3925;48.636;9.516;2022-07-09T11:02:55;32.30;39.50
7762;DHT22;3925;48.636;9.516;2022-07-09T11:05:23;31.60;42.10
7762;DHT22;3925;48.636;9.516;2022-07-09T11:07:58;31.50;41.70
7762;DHT22;3925;48.636;9.516;2022-07-09T11:10:26;30.80;40.90
7762;DHT22;3925;48.636;9.516;2022-07-09T11:12:55;30.50;40.70
7762;DHT22;3925;48.636;9.516;2022-07-09T11:15:24;30.10;41.50
7762;DHT22;3925;48.636;9.516;2022-07-09T11:17:56;29.80;43.90
7762;DHT22;3925;48.636;9.516;2022-07-09T11:20:24;30.10;42.20
7762;DHT22;3925;48.636;9.516;2022-07-09T11:22:51;30.20;41.20
7762;DHT22;3925;48.636;9.516;2022-07-09T11:25:22;29.80;44.00
7762;DHT22;3925;48.636;9.516;2022-07-09T11:27:50;30.10;43.10
7762;DHT22;3925;48.636;9.516;2022-07-09T11:30:18;30.30;41.20
7762;DHT22;3925;48.636;9.516;2022-07-09T11:32:45;30.70;41.70
7762;DHT22;3925;48.636;9.516;2022-07-09T11:35:23;30.50;39.10
7762;DHT22;3925;48.636;9.516;2022-07-09T11:37:51;30.70;41.00
7762;DHT22;3925;48.636;9.516;2022-07-09T11:40:19;30.70;37.30
7762;DHT22;3925;48.636;9.516;2022-07-09T11:42:46;30.90;37.20
7762;DHT22;3925;48.636;9.516;2022-07-09T11:45:19;30.70;39.00
7762;DHT22;3925;48.636;9.516;2022-07-09T11:47:47;30.30;38.00
7762;DHT22;3925;48.636;9.516;2022-07-09T11:50:16;29.60;38.60
7762;DHT22;3925;48.636;9.516;2022-07-09T11:52:46;29.60;42.10
7762;DHT22;3925;48.636;9.516;2022-07-09T11:55:16;30.00;40.50
7762;DHT22;3925;48.636;9.516;2022-07-09T11:57:55;29.50;39.00
7762;DHT22;3925;48.636;9.516;2022-07-09T12:00:24;29.40;40.50
7762;DHT22;3925;48.636;9.516;2022-07-09T12:02:55;29.60;42.80
7762;DHT22;3925;48.636;9.516;2022-07-09T12:05:27;29.60;40.90
7762;DHT22;3925;48.636;9.516;2022-07-09T12:07:56;30.10;42.20
7762;DHT22;3925;48.636;9.516;2022-07-09T12:10:28;30.40;41.60
7762;DHT22;3925;48.636;9.516;2022-07-09T12:12:56;29.70;39.00
7762;DHT22;3925;48.636;9.516;2022-07-09T12:15:24;28.70;39.80
7762;DHT22;3925;48.636;9.516;2022-07-09T12:17:52;28.60;42.60
7762;DHT22;3925;48.636;9.516;2022-07-09T12:20:22;28.80;43.70
7762;DHT22;3925;48.636;9.516;2022-07-09T12:22:49;29.00;44.80
7762;DHT22;3925;48.636;9.516;2022-07-09T12:25:17;29.00;43.40
7762;DHT22;3925;48.636;9.516;2022-07-09T12:27:44;28.90;41.90
7762;DHT22;3925;48.636;9.516;2022-07-09T12:30:12;28.80;45.80
7762;DHT22;3925;48.636;9.516;2022-07-09T12:32:39;28.60;45.80
7762;DHT22;3925;48.636;9.516;2022-07-09T12:35:08;28.70;46.10
7762;DHT22;3925;48.636;9.516;2022-07-09T12:37:37;28.80;45.30
7762;DHT22;3925;48.636;9.516;2022-07-09T12:40:06;29.00;47.20
7762;DHT22;3925;48.636;9.516;2022-07-09T12:42:34;29.40;48.60
7762;DHT22;3925;48.636;9.516;2022-07-09T12:45:01;29.40;45.90
7762;DHT22;3925;48.636;9.516;2022-07-09T12:47:28;29.60;47.40
7762;DHT22;3925;48.636;9.516;2022-07-09T12:49:55;29.50;47.30
7762;DHT22;3925;48.636;9.516;2022-07-09T12:52:22;29.90;46.90
7762;DHT22;3925;48.636;9.516;2022-07-09T12:54:50;30.30;47.20
7762;DHT22;3925;48.636;9.516;2022-07-09T12:57:18;30.30;45.50
7762;DHT22;3925;48.636;9.516;2022-07-09T12:59:45;30.20;44.20
7762;DHT22;3925;48.636;9.516;2022-07-09T13:02:11;29.80;43.90
7762;DHT22;3925;48.636;9.516;2022-07-09T13:04:38;30.10;45.40
7762;DHT22;3925;48.636;9.516;2022-07-09T13:07:05;30.00;43.50
7762;DHT22;3925;48.636;9.516;2022-07-09T13:09:32;30.00;42.10
7762;DHT22;3925;48.636;9.516;2022-07-09T13:12:01;30.10;44.40
7762;DHT22;3925;48.636;9.516;2022-07-09T13:14:28;30.10;45.50
7762;DHT22;3925;48.636;9.516;2022-07-09T13:16:55;29.90;45.80
7762;DHT22;3925;48.636;9.516;2022-07-09T13:19:22;29.60;45.10
7762;DHT22;3925;48.636;9.516;2022-07-09T13:21:49;29.20;46.30
7762;DHT22;3925;48.636;9.516;2022-07-09T13:24:16;29.10;47.50
7762;DHT22;3925;48.636;9.516;2022-07-09T13:26:43;29.10;48.50
7762;DHT22;3925;48.636;9.516;2022-07-09T13:29:12;29.20;47.50
7762;DHT22;3925;48.636;9.516;2022-07-09T13:31:39;29.20;49.40
7762;DHT22;3925;48.636;9.516;2022-07-09T13:34:06;28.90;46.90
7762;DHT22;3925;48.636;9.516;2022-07-09T13:36:33;29.20;48.70
7762;DHT22;3925;48.636;9.516;2022-07-09T13:39:00;29.60;48.00
7762;DHT22;3925;48.636;9.516;2022-07-09T13:41:27;29.60;48.00
7762;DHT22;3925;48.636;9.516;2022-07-09T13:43:54;29.20;47.20
7762;DHT22;3925;48.636;9.516;2022-07-09T13:46:22;29.30;45.40
7762;DHT22;3925;48.636;9.516;2022-07-09T13:48:49;29.30;46.30
7762;DHT22;3925;48.636;9.516;2022-07-09T13:51:16;29.70;47.70
7762;DHT22;3925;48.636;9.516;2022-07-09T13:53:43;30.00;46.60
7762;DHT22;3925;48.636;9.516;2022-07-09T13:56:10;29.60;46.20
7762;DHT22;3925;48.636;9.516;2022-07-09T13:58:37;29.20;46.80
7762;DHT22;3925;48.636;9.516;2022-07-09T14:01:04;29.40;47.00
7762;DHT22;3925;48.636;9.516;2022-07-09T14:03:32;29.30;47.00
7762;DHT22;3925;48.636;9.516;2022-07-09T14:06:00;29.20;48.10
7762;DHT22;3925;48.636;9.516;2022-07-09T14:08:27;29.20;47.00
7762;DHT22;3925;48.636;9.516;2022-07-09T14:10:54;29.40;47.60
7762;DHT22;3925;48.636;9.516;2022-07-09T14:13:25;29.50;45.80
7762;DHT22;3925;48.636;9.516;2022-07-09T14:15:53;29.60;46.60
7762;DHT22;3925;48.636;9.516;2022-07-09T14:18:21;29.40;45.90
7762;DHT22;3925;48.636;9.516;2022-07-09T14:20:50;28.90;46.70
7762;DHT22;3925;48.636;9.516;2022-07-09T14:23:17;29.30;48.90
7762;DHT22;3925;48.636;9.516;2022-07-09T14:25:44;29.30;46.60
7762;DHT22;3925;48.636;9.516;2022-07-09T14:28:11;29.40;46.50
7762;DHT22;3925;48.636;9.516;2022-07-09T14:30:38;29.20;47.80
7762;DHT22;3925;48.636;9.516;2022-07-09T14:33:05;28.90;47.20
7762;DHT22;3925;48.636;9.516;2022-07-09T14:35:32;29.10;48.30
7762;DHT22;3925;48.636;9.516;2022-07-09T14:38:01;29.10;47.90
7762;DHT22;3925;48.636;9.516;2022-07-09T14:40:28;29.10;48.20
7762;DHT22;3925;48.636;9.516;2022-07-09T14:42:55;29.20;48.40
7762;DHT22;3925;48.636;9.516;2022-07-09T14:45:22;29.10;47.40
7762;DHT22;3925;48.636;9.516;2022-07-09T14:47:51;29.20;48.90
7762;DHT22;3925;48.636;9.516;2022-07-09T14:50:18;29.40;50.70
7762;DHT22;3925;48.636;9.516;2022-07-09T14:52:45;29.10;47.70
7762;DHT22;3925;48.636;9.516;2022-07-09T14:55:14;28.90;47.80
7762;DHT22;3925;48.636;9.516;2022-07-09T14:57:41;28.70;48.50
7762;DHT22;3925;48.636;9.516;2022-07-09T15:00:09;28.60;49.20
7762;DHT22;3925;48.636;9.516;2022-07-09T15:02:36;28.80;49.50
7762;DHT22;3925;48.636;9.516;2022-07-09T15:05:03;28.60;50.00
7762;DHT22;3925;48.636;9.516;2022-07-09T15:07:30;28.40;48.20
7762;DHT22;3925;48.636;9.516;2022-07-09T15:09:58;28.40;48.70
7762;DHT22;3925;48.636;9.516;2022-07-09T15:12:26;28.80;48.60
7762;DHT22;3925;48.636;9.516;2022-07-09T15:14:53;28.90;48.30
7762;DHT22;3925;48.636;9.516;2022-07-09T15:17:20;28.80;48.70
7762;DHT22;3925;48.636;9.516;2022-07-09T15:19:48;28.50;48.90
7762;DHT22;3925;48.636;9.516;2022-07-09T15:22:15;28.30;48.60
7762;DHT22;3925;48.636;9.516;2022-07-09T15:24:42;28.10;49.10
7762;DHT22;3925;48.636;9.516;2022-07-09T15:27:09;27.80;49.10
7762;DHT22;3925;48.636;9.516;2022-07-09T15:29:37;27.90;50.20
7762;DHT22;3925;48.636;9.516;2022-07-09T15:32:04;27.70;49.30
7762;DHT22;3925;48.636;9.516;2022-07-09T15:34:32;27.60;49.80
7762;DHT22;3925;48.636;9.516;2022-07-09T15:36:59;27.60;50.00
7762;DHT22;3925;48.636;9.516;2022-07-09T15:39:29;27.60;51.00
7762;DHT22;3925;48.636;9.516;2022-07-09T15:41:56;27.80;49.80
7762;DHT22;3925;48.636;9.516;2022-07-09T15:44:23;27.80;51.00
7762;DHT22;3925;48.636;9.516;2022-07-09T15:46:51;28.00;50.00
7762;DHT22;3925;48.636;9.516;2022-07-09T15:49:19;27.90;49.50
7762;DHT22;3925;48.636;9.516;2022-07-09T15:51:47;27.80;50.50
7762;DHT22;3925;48.636;9.516;2022-07-09T15:54:14;27.70;50.90
7762;DHT22;3925;48.636;9.516;2022-07-09T15:56:41;27.70;51.40
7762;DHT22;3925;48.636;9.516;2022-07-09T15:59:08;27.70;52.80
7762;DHT22;3925;48.636;9.516;2022-07-09T16:01:35;27.40;52.50
7762;DHT22;3925;48.636;9.516;2022-07-09T16:04:04;27.30;53.00
7762;DHT22;3925;48.636;9.516;2022-07-09T16:06:31;27.20;53.60
7762;DHT22;3925;48.636;9.516;2022-07-09T16:08:58;27.10;53.80
7762;DHT22;3925;48.636;9.516;2022-07-09T16:11:26;26.70;53.50